Latest Weather Observations for Hobart Airport

IDT60801

Issued at 8:51 pm EST Wednesday 29 June 2022 (issued every 10 minutes, with the page automatically refreshed every 10 minutes)

About weather observations | Map of weather stations | Latest weather observations for TAS | Other Formats
Station Details ID: 094008 Name: HOBART AIRPORT Lat: -42.83 Lon: 147.50 Height: 4.0 m
Data from the previous 72 hours. | See also: Recent months at Hobart Airport
Date/Time
EST
Temp
°C
App
Temp
°C
Dew
Point
°C
Rel
Hum
%
Delta-T
°C
Wind Press
QNH
hPa
Press
MSL
hPa
Rain since
9am
mm
Dir  Spd
km/h
Gust
km/h
Spd
kts
Gust
kts
29/08:30pm 12.4 8.2 5.6 63 3.2 NNW 17 26 9 14 1015.9 1016.0 0.0
29/08:00pm 12.5 8.7 5.7 63 3.2 NW 15 19 8 10 1015.8 1015.9 0.0
29/07:30pm 12.5 8.3 5.7 63 3.2 NW 17 19 9 10 1015.5 1015.6 0.0
29/07:00pm 12.5 8.2 5.4 62 3.3 NW 17 20 9 11 1015.4 1015.4 0.0
29/06:30pm 11.9 8.5 5.8 66 2.8 NNW 13 17 7 9 1015.4 1015.4 0.0
29/06:00pm 11.0 8.3 5.5 69 2.5 NW 9 11 5 6 1015.1 1015.1 0.0
29/05:30pm 12.0 9.2 5.0 62 3.2 NNW 9 13 5 7 1014.9 1014.9 0.0
29/05:00pm 10.9 7.7 5.0 67 2.7 N 11 15 6 8 1014.7 1014.7 0.0
29/04:30pm 11.5 8.3 5.2 65 2.9 N 11 15 6 8 1014.6 1014.6 0.0
29/04:00pm 12.1 8.5 5.0 62 3.3 NNW 13 19 7 10 1014.9 1014.9 0.0
29/03:30pm 12.8 9.2 4.8 58 3.7 NNW 13 19 7 10 1015.0 1015.0 0.0
29/03:00pm 13.1 9.4 4.5 56 3.9 NNW 13 20 7 11 1014.9 1014.9 0.0
29/02:30pm 13.5 8.5 4.4 54 4.2 NW 20 30 11 16 1015.1 1015.1 0.0
29/02:00pm 13.4 8.6 4.6 55 4.0 NW 19 26 10 14 1015.5 1015.6 0.0
29/01:30pm 12.8 9.2 5.0 59 3.6 NNW 13 19 7 10 1015.7 1015.8 0.0
29/01:00pm 12.6 8.9 4.6 58 3.7 NNW 13 20 7 11 1016.3 1016.4 0.0
29/12:30pm 12.5 8.4 4.2 57 3.8 NW 15 20 8 11 1017.0 1017.1 0.0
29/12:00pm 12.5 8.8 4.5 58 3.6 NW 13 19 7 10 1017.0 1017.1 0.0
29/11:30am 12.0 8.6 3.8 57 3.7 NNW 11 15 6 8 1017.4 1017.5 0.0
29/11:00am 10.9 7.2 4.6 65 2.8 NNW 13 19 7 10 1018.0 1018.1 0.0
29/10:30am 10.4 6.8 4.8 68 2.5 NNW 13 17 7 9 1018.7 1018.8 0.0
29/10:00am 9.6 5.6 4.8 72 2.1 NNW 15 20 8 11 1018.9 1019.0 0.0
29/09:30am 9.1 5.1 4.9 75 1.9 NNW 15 20 8 11 1019.1 1019.2 0.0
29/09:00am 8.0 4.1 5.3 83 1.2 NW 15 19 8 10 1019.2 1019.3 0.0
29/08:30am 7.5 3.4 4.6 82 1.3 NW 15 17 8 9 1019.2 1019.3 0.0
29/08:00am 7.5 3.9 4.8 83 1.2 NW 13 15 7 8 1019.3 1019.4 0.0
29/07:30am 7.5 3.9 5.0 84 1.1 NW 13 17 7 9 1019.5 1019.6 0.0
29/07:00am 7.9 4.3 5.2 83 1.2 NNW 13 15 7 8 1019.5 1019.6 0.0
29/06:30am 8.0 4.8 5.3 83 1.2 NW 11 15 6 8 1019.5 1019.6 0.0
29/06:00am 8.3 4.8 5.6 83 1.2 NW 13 17 7 9 1019.5 1019.6 0.0
29/05:30am 8.7 5.7 5.8 82 1.3 NNW 11 15 6 8 1019.5 1019.6 0.0
29/05:00am 9.3 5.9 5.9 79 1.6 NW 13 17 7 9 1019.4 1019.5 0.0
29/04:30am 9.7 5.9 5.9 77 1.7 NW 15 19 8 10 1019.5 1019.6 0.0
29/04:00am 10.1 7.1 6.1 76 1.8 NW 11 15 6 8 1019.5 1019.6 0.0
29/03:30am 9.7 6.7 6.2 79 1.6 NNW 11 15 6 8 1019.7 1019.8 0.0
29/03:00am 9.4 7.2 6.3 81 1.4 N 7 11 4 6 1020.1 1020.2 0.0
29/02:30am 10.5 8.5 6.3 75 2.0 N 6 11 3 6 1020.1 1020.2 0.0
29/02:00am 9.2 6.6 6.3 82 1.3 N 9 13 5 7 1020.1 1020.2 0.0
29/01:30am 9.8 8.6 6.5 80 1.5 WSW 2 9 1 5 1020.1 1020.2 0.0
29/01:00am 9.7 7.2 6.6 81 1.4 NNW 9 11 5 6 1020.2 1020.3 0.0
29/12:30am 10.0 7.1 6.3 78 1.7 NW 11 11 6 6 1020.5 1020.6 0.0
29/12:00am 10.2 7.3 6.7 79 1.6 NW 11 13 6 7 1020.8 1020.9 0.0
 
Date/Time
EST
Temp
°C
App
Temp
°C
Dew
Point
°C
Rel
Hum
%
Delta-T
°C
Wind Press
QNH
hPa
Press
MSL
hPa
Rain since
9am
mm
Dir  Spd
km/h
Gust
km/h
Spd
kts
Gust
kts
28/11:30pm 9.9 6.6 6.6 80 1.5 NW 13 15 7 8 1021.2 1021.3 0.0
28/11:00pm 10.3 6.4 7.0 80 1.6 NW 17 20 9 11 1021.0 1021.1 0.0
28/10:30pm 9.5 5.9 6.8 83 1.3 NNW 15 20 8 11 1021.1 1021.2 0.0
28/10:00pm 10.3 7.2 7.2 81 1.5 NNW 13 15 7 8 1021.4 1021.5 0.0
28/09:30pm 10.7 8.3 7.0 78 1.8 NNW 9 11 5 6 1021.4 1021.5 0.0
28/09:00pm 10.2 8.3 7.4 83 1.3 N 7 7 4 4 1021.6 1021.7 0.0
28/08:30pm 10.5 8.4 6.8 78 1.7 NW 7 7 4 4 1021.5 1021.6 0.0
28/08:00pm 11.4 9.4 7.3 76 2.0 NW 7 9 4 5 1021.5 1021.6 0.0
28/07:30pm 11.3 8.6 7.2 76 2.0 NNW 11 13 6 7 1021.7 1021.8 0.0
28/07:00pm 11.2 8.5 7.5 78 1.8 N 11 13 6 7 1021.6 1021.7 0.0
28/06:30pm 12.5 9.4 7.2 70 2.6 NW 13 15 7 8 1021.9 1022.0 0.0
28/06:00pm 13.3 10.2 7.3 67 2.9 NW 13 15 7 8 1021.8 1021.9 0.0
28/05:30pm 12.4 9.6 6.9 69 2.6 WSW 11 15 6 8 1021.9 1022.0 0.0
28/05:00pm 12.9 10.5 6.9 67 2.9 WNW 9 13 5 7 1021.5 1021.6 0.0
28/04:30pm 13.6 11.2 6.9 64 3.2 NNW 9 11 5 6 1021.2 1021.3 0.0
28/04:00pm 14.0 10.8 6.8 62 3.5 NW 13 17 7 9 1021.2 1021.3 0.0
28/03:30pm 13.8 10.7 7.1 64 3.3 NW 13 17 7 9 1021.3 1021.4 0.0
28/03:00pm 14.4 10.9 7.2 62 3.5 NW 15 19 8 10 1021.3 1021.4 0.0
28/02:30pm 13.9 10.0 7.0 63 3.4 NW 17 26 9 14 1021.1 1021.2 0.0
28/02:00pm 14.0 9.7 6.8 62 3.5 NW 19 28 10 15 1021.3 1021.4 0.0
28/01:30pm 13.6 10.9 7.2 65 3.1 NNW 11 20 6 11 1021.4 1021.5 0.0
28/01:00pm 13.6 10.0 6.7 63 3.3 NNW 15 24 8 13 1021.6 1021.7 0.0
28/12:30pm 13.1 8.7 6.5 64 3.2 NW 19 28 10 15 1021.8 1021.9 0.0
28/12:00pm 13.0 8.4 6.6 65 3.1 NW 20 32 11 17 1021.9 1022.0 0.0
28/11:30am 12.6 7.2 6.2 65 3.0 NW 24 35 13 19 1022.1 1022.2 0.0
28/11:00am 12.4 6.6 6.2 66 2.9 NW 26 35 14 19 1022.9 1023.0 0.0
28/10:30am 11.8 8.1 6.1 68 2.7 NNW 15 22 8 12 1023.1 1023.2 0.0
28/10:00am 10.9 7.3 5.2 68 2.6 NNW 13 20 7 11 1023.1 1023.2 0.0
28/09:30am 10.7 7.1 5.0 68 2.6 NNW 13 19 7 10 1023.4 1023.5 0.0
28/09:00am 10.5 6.8 4.6 67 2.6 NNW 13 17 7 9 1023.7 1023.8 0.0
28/08:30am 9.9 5.8 4.5 69 2.4 NW 15 19 8 10 1024.2 1024.3 0.0
28/08:00am 9.6 5.9 4.4 70 2.3 NNW 13 19 7 10 1023.8 1023.9 0.0
28/07:30am 10.1 6.0 4.3 67 2.6 N 15 24 8 13 1023.9 1024.0 0.0
28/07:00am 9.6 5.5 4.4 70 2.3 N 15 20 8 11 1024.0 1024.1 0.0
28/06:30am 9.7 5.6 4.5 70 2.3 NNW 15 20 8 11 1024.2 1024.3 0.0
28/06:00am 9.5 5.4 4.3 70 2.3 NNW 15 20 8 11 1024.2 1024.3 0.0
28/05:30am 9.7 4.7 3.7 66 2.6 NW 19 28 10 15 1024.1 1024.2 0.0
28/05:00am 7.6 4.1 3.3 74 1.8 N 11 19 6 10 1024.0 1024.1 0.0
28/04:30am 7.9 4.3 3.2 72 2.0 N 11 15 6 8 1024.0 1024.1 0.0
28/04:00am 8.1 4.5 3.2 71 2.1 NNW 11 15 6 8 1024.2 1024.3 0.0
28/03:30am 8.3 3.9 2.8 68 2.3 NNW 15 22 8 12 1024.4 1024.5 0.0
28/03:00am 8.1 3.3 2.6 68 2.3 NNW 17 26 9 14 1024.5 1024.6 0.0
28/02:30am 7.5 2.6 2.2 69 2.2 NNW 17 28 9 15 1025.1 1025.2 0.0
28/02:00am 7.0 2.1 1.7 69 2.1 NNW 17 24 9 13 1025.6 1025.7 0.0
28/01:30am 7.6 2.1 1.7 66 2.4 N 20 28 11 15 1025.7 1025.8 0.0
28/01:00am 7.7 2.2 2.0 67 2.3 N 20 26 11 14 1026.0 1026.1 0.0
28/12:30am 7.2 2.6 1.7 68 2.2 N 15 24 8 13 1026.5 1026.6 0.0
28/12:00am 7.1 1.6 1.8 69 2.1 NNW 20 28 11 15 1026.6 1026.7 0.0
 
Date/Time
EST
Temp
°C
App
Temp
°C
Dew
Point
°C
Rel
Hum
%
Delta-T
°C
Wind Press
QNH
hPa
Press
MSL
hPa
Rain since
9am
mm
Dir  Spd
km/h
Gust
km/h
Spd
kts
Gust
kts
27/11:30pm 7.6 2.7 1.7 66 2.4 N 17 32 9 17 1027.1 1027.2 0.0
27/11:00pm 7.5 2.5 1.6 66 2.4 N 17 28 9 15 1027.2 1027.3 0.0
27/10:30pm 6.6 2.0 1.7 71 2.0 NNW 15 22 8 12 1027.5 1027.6 0.0
27/10:00pm 6.4 1.5 2.1 74 1.7 N 17 22 9 12 1028.0 1028.1 0.0
27/09:30pm 6.7 2.2 2.2 73 1.8 N 15 20 8 11 1028.0 1028.1 0.0
27/09:00pm 7.0 2.9 2.3 72 1.9 N 13 19 7 10 1028.5 1028.6 0.0
27/08:30pm 6.6 1.7 2.1 73 1.8 NNW 17 26 9 14 1028.7 1028.8 0.0
27/08:00pm 7.3 3.3 2.6 72 1.9 N 13 20 7 11 1028.6 1028.7 0.0
27/07:30pm 7.1 2.2 2.2 71 2.0 NNW 17 26 9 14 1028.7 1028.8 0.0
27/07:00pm 7.0 3.3 2.5 73 1.8 NNW 11 17 6 9 1028.4 1028.5 0.0
27/06:30pm 6.0 1.9 2.3 77 1.5 NNW 13 17 7 9 1028.5 1028.6 0.0
27/06:00pm 6.4 2.2 1.9 73 1.8 NNW 13 15 7 8 1028.5 1028.6 0.0
27/05:30pm 5.8 2.5 2.3 78 1.4 NNW 9 11 5 6 1028.8 1028.9 0.0
27/05:00pm 7.6 3.9 2.1 68 2.2 NNW 11 15 6 8 1028.8 1028.9 0.0
27/04:30pm 7.9 4.2 2.4 68 2.3 N 11 15 6 8 1028.4 1028.5 0.0
27/04:00pm 9.5 5.3 1.4 57 3.3 WNW 13 19 7 10 1028.9 1029.0 0.0
27/03:30pm 10.1 5.5 1.7 56 3.5 WNW 15 22 8 12 1028.8 1028.9 0.0
27/03:00pm 10.2 4.9 1.6 55 3.6 NW 19 24 10 13 1028.8 1028.9 0.0
27/02:30pm 10.4 5.4 1.2 53 3.8 NW 17 24 9 13 1028.8 1028.9 0.0
27/02:00pm 10.3 5.0 1.7 55 3.6 NW 19 26 10 14 1028.9 1029.0 0.0
27/01:30pm 10.0 4.5 1.6 56 3.5 WNW 20 28 11 15 1029.0 1029.1 0.0
27/01:00pm 10.1 4.2 2.0 57 3.4 WNW 22 30 12 16 1029.0 1029.1 0.0
27/12:30pm 9.5 4.6 1.9 59 3.2 WNW 17 24 9 13 1029.0 1029.1 0.0
27/12:00pm 9.7 4.4 2.1 59 3.2 NNW 19 26 10 14 1029.2 1029.3 0.0
27/11:30am 8.7 3.5 2.5 65 2.6 NW 19 26 10 14 1029.5 1029.6 0.0
27/11:00am 8.7 3.9 2.5 65 2.6 NW 17 24 9 13 1029.6 1029.7 0.0
27/10:30am 7.8 3.3 2.3 68 2.3 NNW 15 20 8 11 1029.5 1029.6 0.0
27/10:00am 7.1 2.6 2.2 71 2.0 NW 15 22 8 12 1029.2 1029.3 0.0
27/09:30am 6.1 1.2 2.0 75 1.7 NW 17 26 9 14 1029.1 1029.2 0.0
27/09:00am 5.0 0.8 1.7 79 1.3 NW 13 19 7 10 1028.8 1028.9 0.2
27/08:30am 4.1 -0.1 1.5 83 1.0 NW 13 15 7 8 1028.2 1028.3 0.2
27/08:00am 3.9 -0.4 1.1 82 1.1 NNW 13 17 7 9 1027.9 1028.0 0.2
27/07:30am 3.9 0.4 1.1 82 1.1 NW 9 13 5 7 1027.6 1027.7 0.2
27/07:00am 2.2 -1.1 -0.2 84 0.9 N 7 9 4 5 1027.3 1027.4 0.2
27/06:30am 3.6 -0.4 0.7 81 1.1 W 11 15 6 8 1027.0 1027.1 0.2
27/06:00am 4.2 0.0 1.9 85 0.9 NW 13 17 7 9 1026.7 1026.8 0.2
27/05:30am 4.2 0.4 1.7 84 1.0 WNW 11 15 6 8 1026.3 1026.4 0.2
27/05:00am 3.5 0.4 1.2 85 0.9 WNW 7 7 4 4 1026.0 1026.1 0.2
27/04:30am 3.3 1.1 1.0 85 0.9 SSW 2 7 1 4 1025.7 1025.8 0.2
27/04:00am 4.2 1.3 1.4 82 1.1 NW 6 9 3 5 1025.3 1025.4 0.2
27/03:30am 4.0 0.1 1.4 83 1.0 NW 11 15 6 8 1025.1 1025.2 0.2
27/03:00am 4.8 1.9 2.5 85 0.9 SSW 7 13 4 7 1025.1 1025.2 0.2
27/02:30am 4.3 2.1 1.0 79 1.3 WSW 2 7 1 4 1024.9 1025.0 0.0
27/02:00am 4.3 0.7 0.8 78 1.3 WNW 9 15 5 8 1024.4 1024.5 0.0
27/01:30am 4.3 0.7 0.8 78 1.3 WNW 9 13 5 7 1024.0 1024.1 0.0
27/01:00am 3.2 0.0 0.9 85 0.9 NW 7 9 4 5 1023.9 1024.0 0.0
27/12:30am 3.1 -1.3 0.3 82 1.1 NNW 13 19 7 10 1023.4 1023.5 0.0
27/12:00am 3.2 -0.4 0.6 83 1.0 NNE 9 13 5 7 1023.3 1023.4 0.0
 
Date/Time
EST
Temp
°C
App
Temp
°C
Dew
Point
°C
Rel
Hum
%
Delta-T
°C
Wind Press
QNH
hPa
Press
MSL
hPa
Rain since
9am
mm
Dir  Spd
km/h
Gust
km/h
Spd
kts
Gust
kts
26/11:30pm 3.4 0.2 0.5 81 1.1 NE 7 9 4 5 1023.0 1023.1 0.0
26/11:00pm 3.0 -0.3 0.1 81 1.1 N 7 11 4 6 1022.9 1023.0 0.0
26/10:30pm 4.4 1.4 1.1 79 1.3 NW 6 11 3 6 1022.8 1022.9 0.0
26/10:00pm 5.4 1.1 1.3 75 1.6 NNW 13 17 7 9 1022.5 1022.6 0.0
26/09:30pm 4.2 1.3 1.2 81 1.2 N 6 7 3 4 1022.3 1022.4 0.0
26/09:00pm 3.6 0.4 0.5 80 1.2 NNE 7 11 4 6 1022.3 1022.4 0.0

Other formats

Comma delimited format used in spreadsheet applications
http://www.bom.gov.au/fwo/IDT60801/IDT60801.94975.axf

JavaScript Object Notation format (JSON) in row-major order
http://www.bom.gov.au/fwo/IDT60801/IDT60801.94975.json

Data quality

Most of these data are generated automatically and are frequently updated. Quality checks on data are not normally performed. It is possible for incorrect values to appear. Refer to information at About Latest Weather Observations and please check the disclaimer before using these data.